createdAt,value
2022-08-25T00:02:01.996Z,100899.88
2022-08-25T00:04:33.783Z,100902.47
2022-08-25T00:07:10.618Z,100905.06
2022-08-25T00:09:39.987Z,100894.31
2022-08-25T00:12:11.882Z,100905.50
2022-08-25T00:14:42.620Z,100910.06
2022-08-25T00:17:11.802Z,100905.78
2022-08-25T00:19:43.594Z,100913.59
2022-08-25T00:22:12.845Z,100915.31
2022-08-25T00:24:42.052Z,100913.59
2022-08-25T00:27:13.703Z,100911.66
2022-08-25T00:29:42.943Z,100908.25
2022-08-25T00:32:12.926Z,100905.78
2022-08-25T00:34:47.817Z,100906.63
2022-08-25T00:37:17.761Z,100905.78
2022-08-25T00:39:47.779Z,100888.44
2022-08-25T00:42:20.336Z,100906.31
2022-08-25T00:44:49.546Z,100900.19
2022-08-25T00:47:19.227Z,100919.63
2022-08-25T00:49:52.295Z,100901.38
2022-08-25T00:52:25.716Z,100907.03
2022-08-25T00:55:05.752Z,100905.25
2022-08-25T00:57:44.681Z,100898.59
2022-08-25T01:00:19.362Z,100903.72
2022-08-25T01:02:50.331Z,100891.06
2022-08-25T01:05:26.052Z,100902.97
2022-08-25T01:07:58.584Z,100899.44
2022-08-25T01:10:43.105Z,100902.06
2022-08-25T01:13:19.265Z,100904.09
2022-08-25T01:15:58.584Z,100897.88
2022-08-25T01:18:29.214Z,100897.09
2022-08-25T01:21:01.637Z,100894.84
2022-08-25T01:23:31.703Z,100895.00
2022-08-25T01:26:09.128Z,100898.72
2022-08-25T01:28:59.054Z,100878.22
2022-08-25T01:31:33.907Z,100900.69
2022-08-25T01:34:03.278Z,100894.75
2022-08-25T01:36:36.217Z,100899.16
2022-08-25T01:39:07.892Z,100900.00
2022-08-25T01:41:52.224Z,100882.69
2022-08-25T01:44:21.388Z,100897.25
2022-08-25T01:46:50.473Z,100896.34
2022-08-25T01:49:24.846Z,100898.97
2022-08-25T01:52:04.685Z,100901.44
2022-08-25T01:54:33.992Z,100895.50
2022-08-25T01:57:04.472Z,100901.66
2022-08-25T01:59:33.798Z,100893.06
2022-08-25T02:02:08.424Z,100899.22
2022-08-25T02:04:40.779Z,100903.56
2022-08-25T02:07:16.002Z,100896.59
2022-08-25T02:09:46.580Z,100893.22
2022-08-25T02:12:16.101Z,100903.91
2022-08-25T02:15:07.645Z,100909.16
2022-08-25T02:17:36.577Z,100907.19
2022-08-25T02:20:08.098Z,100907.63
2022-08-25T02:22:56.793Z,100900.59
2022-08-25T02:25:26.491Z,100905.69
2022-08-25T02:27:55.709Z,100897.31
2022-08-25T02:30:25.140Z,100909.53
2022-08-25T02:32:54.822Z,100907.03
2022-08-25T02:35:24.379Z,100922.88
2022-08-25T02:37:55.873Z,100905.44
2022-08-25T02:40:30.149Z,100903.69
2022-08-25T02:42:59.261Z,100903.72
2022-08-25T02:45:28.471Z,100904.53
2022-08-25T02:47:57.996Z,100909.72
2022-08-25T02:50:27.540Z,100890.53
2022-08-25T02:52:58.504Z,100899.03
2022-08-25T02:55:27.700Z,100897.13
2022-08-25T02:57:56.793Z,100909.28
2022-08-25T03:00:26.296Z,100894.31
2022-08-25T03:02:55.690Z,100901.06
2022-08-25T03:05:25.111Z,100899.91
2022-08-25T03:10:32.159Z,100897.56
2022-08-25T03:13:01.014Z,100903.94
2022-08-25T03:15:37.313Z,100893.44
2022-08-25T03:18:08.694Z,100874.22
2022-08-25T03:20:43.043Z,100893.69
2022-08-25T03:23:12.296Z,100885.72
2022-08-25T03:25:57.058Z,100876.72
2022-08-25T03:28:35.307Z,100898.88
2022-08-25T03:31:04.647Z,100894.38
2022-08-25T03:33:34.001Z,100890.69
2022-08-25T03:36:03.248Z,100891.38
2022-08-25T03:38:32.412Z,100879.09
2022-08-25T03:41:17.072Z,100886.69
2022-08-25T03:43:51.438Z,100881.22
2022-08-25T03:46:21.827Z,100880.81
2022-08-25T03:48:58.524Z,100856.50
2022-08-25T03:51:31.149Z,100866.44
2022-08-25T03:54:08.179Z,100864.41
2022-08-25T03:56:39.613Z,100871.66
2022-08-25T03:59:16.064Z,100870.94
2022-08-25T04:01:49.285Z,100880.19
2022-08-25T04:04:21.189Z,100866.78
2022-08-25T04:06:50.429Z,100871.63
2022-08-25T04:09:19.605Z,100878.38
2022-08-25T04:11:50.868Z,100874.06
2022-08-25T04:14:24.241Z,100864.44
2022-08-25T04:16:58.532Z,100863.72
2022-08-25T04:19:27.640Z,100867.28
2022-08-25T04:21:57.345Z,100859.63
2022-08-25T04:27:11.133Z,100860.09
2022-08-25T04:29:40.483Z,100854.66
2022-08-25T04:32:09.847Z,100850.13
2022-08-25T04:34:39.265Z,100849.00
2022-08-25T04:37:08.720Z,100855.47
2022-08-25T04:39:38.235Z,100851.75
2022-08-25T04:42:09.739Z,100840.97
2022-08-25T04:44:44.529Z,100845.03
2022-08-25T04:47:16.066Z,100849.09
2022-08-25T04:49:45.383Z,100849.63
2022-08-25T04:52:14.812Z,100838.06
2022-08-25T04:54:44.622Z,100839.19
2022-08-25T04:57:15.801Z,100842.25
2022-08-25T04:59:44.953Z,100839.16
2022-08-25T05:02:15.044Z,100839.56
2022-08-25T05:04:44.588Z,100835.34
2022-08-25T05:07:14.525Z,100843.59
2022-08-25T05:09:43.916Z,100828.25
2022-08-25T05:12:14.965Z,100831.19
2022-08-25T05:14:50.197Z,100833.13
2022-08-25T05:17:19.428Z,100826.66
2022-08-25T05:19:51.776Z,100828.81
2022-08-25T05:22:21.078Z,100815.44
2022-08-25T05:24:52.946Z,100827.22
2022-08-25T05:27:27.251Z,100833.44
2022-08-25T05:29:58.626Z,100828.59
2022-08-25T05:32:27.534Z,100830.16
2022-08-25T05:34:56.561Z,100815.28
2022-08-25T05:37:25.963Z,100824.75
2022-08-25T05:39:55.201Z,100822.63
2022-08-25T05:42:30.038Z,100826.38
2022-08-25T05:45:01.329Z,100818.06
2022-08-25T05:47:32.236Z,100820.22
2022-08-25T05:50:06.590Z,100809.44
2022-08-25T05:52:35.743Z,100812.97
2022-08-25T05:55:07.155Z,100815.16
2022-08-25T05:57:37.913Z,100818.22
2022-08-25T06:00:11.315Z,100815.03
2022-08-25T06:02:41.645Z,100811.91
2022-08-25T06:05:11.418Z,100800.84
2022-08-25T06:07:40.534Z,100816.69
2022-08-25T06:10:18.347Z,100797.53
2022-08-25T06:12:48.669Z,100821.91
2022-08-25T06:15:22.020Z,100820.41
2022-08-25T06:18:00.318Z,100828.63
2022-08-25T06:20:32.842Z,100829.19
2022-08-25T06:23:02.682Z,100816.69
2022-08-25T06:25:33.203Z,100812.09
2022-08-25T06:28:07.495Z,100815.75
2022-08-25T06:30:45.811Z,100817.91
2022-08-25T06:33:15.749Z,100808.25
2022-08-25T06:35:46.271Z,100819.50
2022-08-25T06:38:16.960Z,100823.38
2022-08-25T06:40:51.682Z,100800.81
2022-08-25T06:43:21.033Z,100809.38
2022-08-25T06:45:52.145Z,100809.84
2022-08-25T06:48:23.349Z,100745.09
2022-08-25T06:51:07.097Z,100814.59
2022-08-25T06:53:37.290Z,100807.25
2022-08-25T06:56:07.278Z,100805.25
2022-08-25T06:58:36.481Z,100803.13
2022-08-25T07:01:19.778Z,100808.69
2022-08-25T07:03:50.119Z,100801.34
2022-08-25T07:06:27.123Z,100798.09
2022-08-25T07:08:56.767Z,100802.34
2022-08-25T07:11:27.482Z,100792.47
2022-08-25T07:14:02.286Z,100807.16
2022-08-25T07:16:34.035Z,100790.44
2022-08-25T07:19:04.005Z,100797.59
2022-08-25T07:21:35.977Z,100766.72
2022-08-25T07:24:13.790Z,100801.56
2022-08-25T07:26:46.240Z,100792.41
2022-08-25T07:29:18.391Z,100796.88
2022-08-25T07:31:51.032Z,100787.63
2022-08-25T07:34:38.990Z,100784.22
2022-08-25T07:37:08.613Z,100780.19
2022-08-25T07:39:37.830Z,100784.31
2022-08-25T07:42:11.999Z,100789.22
2022-08-25T07:44:43.406Z,100780.03
2022-08-25T07:47:21.407Z,100783.97
2022-08-25T07:49:52.484Z,100771.66
2022-08-25T07:52:27.228Z,100776.75
2022-08-25T07:54:56.335Z,100780.75
2022-08-25T07:57:30.541Z,100754.81
2022-08-25T08:00:00.662Z,100771.28
2022-08-25T08:02:31.890Z,100768.22
2022-08-25T08:05:06.058Z,100775.72
2022-08-25T08:07:43.401Z,100759.19
2022-08-25T08:15:45.640Z,100760.97
2022-08-25T08:18:19.314Z,100748.38
2022-08-25T08:20:50.311Z,100753.25
2022-08-25T08:23:27.609Z,100747.69
2022-08-25T08:25:57.661Z,100747.63
2022-08-25T08:31:10.584Z,100732.84
2022-08-25T08:33:48.531Z,100745.41
2022-08-25T08:36:18.980Z,100736.19
2022-08-25T08:38:55.658Z,100709.72
2022-08-25T08:42:12.423Z,100737.31
2022-08-25T08:45:10.228Z,100728.25
2022-08-25T08:47:52.270Z,100728.75
2022-08-25T08:50:36.770Z,100730.00
2022-08-25T08:53:12.480Z,100718.22
2022-08-25T08:55:52.517Z,100712.91
2022-08-25T08:58:42.919Z,100725.94
2022-08-25T09:01:15.711Z,100716.50
2022-08-25T09:03:55.344Z,100719.63
2022-08-25T09:06:38.777Z,100722.19
2022-08-25T09:09:10.328Z,100703.63
2022-08-25T09:11:53.376Z,100698.41
2022-08-25T09:14:41.934Z,100681.53
2022-08-25T09:17:21.609Z,100702.13
2022-08-25T09:20:22.246Z,100705.84
2022-08-25T09:23:10.045Z,100705.56
2022-08-25T09:25:54.064Z,100706.84
2022-08-25T09:31:15.823Z,100695.84
2022-08-25T09:33:50.587Z,100694.09
2022-08-25T09:36:20.274Z,100690.50
2022-08-25T09:38:56.698Z,100691.81
2022-08-25T09:41:46.964Z,100693.47
2022-08-25T09:47:03.471Z,100684.88
2022-08-25T09:49:41.554Z,100691.81
2022-08-25T09:52:36.227Z,100677.00
2022-08-25T09:55:32.386Z,100684.88
2022-08-25T09:58:02.331Z,100677.25
2022-08-25T10:00:38.964Z,100667.28
2022-08-25T10:03:15.347Z,100665.69
2022-08-25T10:06:03.108Z,100671.16
2022-08-25T10:08:41.063Z,100669.69
2022-08-25T10:11:14.939Z,100661.41
2022-08-25T10:13:46.490Z,100654.84
2022-08-25T10:16:28.625Z,100671.06
2022-08-25T10:19:07.829Z,100661.69
2022-08-25T10:21:38.018Z,100662.00
2022-08-25T10:24:08.695Z,100665.97
2022-08-25T10:26:46.682Z,100658.69
2022-08-25T10:29:29.489Z,100644.38
2022-08-25T10:32:24.101Z,100637.41
2022-08-25T10:34:56.897Z,100644.75
2022-08-25T10:37:39.807Z,100646.97
2022-08-25T10:40:18.688Z,100650.69
2022-08-25T10:43:08.184Z,100647.13
2022-08-25T10:45:44.684Z,100651.78
2022-08-25T10:48:39.241Z,100625.25
2022-08-25T10:51:25.285Z,100639.44
2022-08-25T10:54:05.194Z,100635.88
2022-08-25T10:56:40.703Z,100641.25
2022-08-25T10:59:40.510Z,100630.22
2022-08-25T11:02:41.403Z,100617.22
2022-08-25T11:05:14.108Z,100589.38
2022-08-25T11:07:48.398Z,100621.03
2022-08-25T11:10:24.152Z,100625.84
2022-08-25T11:12:57.691Z,100615.31
2022-08-25T11:15:34.963Z,100605.31
2022-08-25T11:18:14.539Z,100608.09
2022-08-25T11:20:48.478Z,100608.34
2022-08-25T11:23:27.453Z,100585.69
2022-08-25T11:26:02.701Z,100609.50
2022-08-25T11:28:38.426Z,100587.41
2022-08-25T11:31:11.969Z,100584.28
2022-08-25T11:33:41.280Z,100595.03
2022-08-25T11:36:24.461Z,100589.41
2022-08-25T11:39:14.956Z,100589.47
2022-08-25T11:44:53.928Z,100585.38
2022-08-25T11:47:55.296Z,100581.13
2022-08-25T11:50:31.706Z,100573.69
2022-08-25T11:53:30.323Z,100572.03
2022-08-25T11:56:06.138Z,100562.88
2022-08-25T11:58:49.734Z,100565.97
2022-08-25T12:01:48.977Z,100564.16
2022-08-25T12:04:44.279Z,100551.63
2022-08-25T12:07:21.048Z,100561.78
2022-08-25T12:10:27.155Z,100548.53
2022-08-25T12:13:08.115Z,100550.63
2022-08-25T12:16:06.819Z,100564.31
2022-08-25T12:18:46.776Z,100535.59
2022-08-25T12:21:40.174Z,100548.47
2022-08-25T12:24:17.074Z,100541.13
2022-08-25T12:26:59.424Z,100550.59
2022-08-25T12:29:42.998Z,100537.16
2022-08-25T12:32:36.173Z,100540.84
2022-08-25T12:35:23.707Z,100505.19
2022-08-25T12:38:02.765Z,100521.53
2022-08-25T12:40:37.494Z,100521.50
2022-08-25T12:43:12.378Z,100535.72
2022-08-25T12:45:49.223Z,100523.72
2022-08-25T12:48:44.661Z,100508.84
2022-08-25T12:57:40.507Z,100515.06
2022-08-25T13:00:18.431Z,100514.94
2022-08-25T13:03:23.423Z,100509.84
2022-08-25T13:06:36.980Z,100511.78
2022-08-25T13:09:41.514Z,100490.94
2022-08-25T13:12:23.912Z,100514.16
2022-08-25T13:15:01.403Z,100514.16
2022-08-25T13:17:36.210Z,100491.84
2022-08-25T13:20:20.767Z,100494.50
2022-08-25T13:23:02.661Z,100499.28
2022-08-25T13:25:34.283Z,100492.91
2022-08-25T13:28:11.239Z,100498.56
2022-08-25T13:30:45.737Z,100481.56
2022-08-25T13:33:21.851Z,100492.94
2022-08-25T13:36:14.425Z,100464.66
2022-08-25T13:38:45.804Z,100485.91
2022-08-25T13:44:13.218Z,100477.56
2022-08-25T13:46:43.376Z,100482.91
2022-08-25T13:49:13.087Z,100479.94
2022-08-25T13:52:00.222Z,100484.16
2022-08-25T13:54:32.941Z,100461.34
2022-08-25T13:57:21.297Z,100474.28
2022-08-25T13:59:57.635Z,100472.81
2022-08-25T14:02:49.926Z,100461.56
2022-08-25T14:05:36.102Z,100453.31
2022-08-25T14:08:23.465Z,100473.03
2022-08-25T14:11:07.737Z,100471.75
2022-08-25T14:13:51.268Z,100470.03
2022-08-25T14:16:25.694Z,100458.31
2022-08-25T14:18:58.585Z,100458.00
2022-08-25T14:21:35.228Z,100442.91
2022-08-25T14:24:11.011Z,100441.66
2022-08-25T14:26:54.595Z,100447.53
2022-08-25T14:29:24.814Z,100456.25
2022-08-25T14:31:57.210Z,100463.81
2022-08-25T14:34:29.445Z,100442.97
2022-08-25T14:37:04.989Z,100456.56
2022-08-25T14:39:34.599Z,100406.25
2022-08-25T14:42:03.759Z,100444.81
2022-08-25T14:47:11.469Z,100440.00
2022-08-25T14:49:45.536Z,100442.56
2022-08-25T14:52:26.270Z,100444.59
2022-08-25T14:54:56.865Z,100433.41
2022-08-25T14:57:26.266Z,100425.84
2022-08-25T15:00:04.739Z,100421.47
2022-08-25T15:02:40.092Z,100437.94
2022-08-25T15:05:12.392Z,100437.16
2022-08-25T15:07:54.543Z,100434.81
2022-08-25T15:10:25.039Z,100435.28
2022-08-25T15:12:54.889Z,100434.13
2022-08-25T15:15:25.990Z,100433.78
2022-08-25T15:18:00.947Z,100434.25
2022-08-25T15:20:30.847Z,100428.13
2022-08-25T15:23:00.064Z,100427.31
2022-08-25T15:25:30.022Z,100422.97
2022-08-25T15:27:59.810Z,100426.84
2022-08-25T15:30:31.276Z,100408.47
2022-08-25T15:33:07.952Z,100430.41
2022-08-25T15:35:43.532Z,100425.44
2022-08-25T15:38:14.779Z,100405.94
2022-08-25T15:40:43.899Z,100423.75
2022-08-25T15:43:15.533Z,100419.88
2022-08-25T15:45:46.478Z,100429.16
2022-08-25T15:48:17.818Z,100414.50
2022-08-25T15:50:47.129Z,100427.94
2022-08-25T15:53:16.267Z,100430.31
2022-08-25T15:55:52.383Z,100430.75
2022-08-25T15:58:29.903Z,100438.09
2022-08-25T16:00:59.851Z,100439.41
2022-08-25T16:03:31.545Z,100434.03
2022-08-25T16:06:01.072Z,100420.16
2022-08-25T16:08:36.912Z,100431.16
2022-08-25T16:11:08.985Z,100420.91
2022-08-25T16:13:39.025Z,100433.75
2022-08-25T16:16:16.456Z,100439.41
2022-08-25T16:18:48.630Z,100440.91
2022-08-25T16:21:29.828Z,100423.88
2022-08-25T16:24:05.500Z,100433.66
2022-08-25T16:26:45.106Z,100436.31
2022-08-25T16:29:17.865Z,100439.28
2022-08-25T16:34:28.427Z,100441.41
2022-08-25T16:36:58.666Z,100441.34
2022-08-25T16:39:28.701Z,100439.09
2022-08-25T16:41:58.455Z,100428.50
2022-08-25T16:44:28.198Z,100445.25
2022-08-25T16:46:57.602Z,100439.72
2022-08-25T16:49:29.059Z,100443.44
2022-08-25T16:51:58.558Z,100447.47
2022-08-25T16:54:46.732Z,100443.72
2022-08-25T16:57:17.702Z,100448.81
2022-08-25T16:59:47.379Z,100456.41
2022-08-25T17:02:16.774Z,100445.47
2022-08-25T17:04:52.828Z,100442.47
2022-08-25T17:07:26.275Z,100428.34
2022-08-25T17:10:03.181Z,100455.94
2022-08-25T17:12:45.288Z,100459.84
2022-08-25T17:15:19.478Z,100456.56
2022-08-25T17:17:50.685Z,100462.28
2022-08-25T17:20:22.485Z,100454.00
2022-08-25T17:22:51.931Z,100457.91
2022-08-25T17:25:31.113Z,100464.25
2022-08-25T17:28:00.636Z,100452.81
2022-08-25T17:30:31.866Z,100450.47
2022-08-25T17:33:08.221Z,100449.06
2022-08-25T17:35:42.828Z,100442.53
2022-08-25T17:38:14.409Z,100445.00
2022-08-25T17:40:44.546Z,100442.13
2022-08-25T17:43:13.921Z,100445.38
2022-08-25T17:45:43.739Z,100448.41
2022-08-25T17:48:13.713Z,100444.72
2022-08-25T17:50:45.117Z,100433.28
2022-08-25T17:53:17.186Z,100429.78
2022-08-25T17:55:58.688Z,100458.63
2022-08-25T17:58:29.357Z,100451.63
2022-08-25T18:00:59.727Z,100450.38
2022-08-25T18:03:29.568Z,100462.78
2022-08-25T18:06:00.929Z,100458.50
2022-08-25T18:08:35.364Z,100454.34
2022-08-25T18:11:05.433Z,100456.34
2022-08-25T18:16:24.445Z,100455.28
2022-08-25T18:18:55.418Z,100457.84
2022-08-25T18:21:30.526Z,100464.53
2022-08-25T18:24:02.153Z,100459.53
2022-08-25T18:26:43.785Z,100461.66
2022-08-25T18:29:14.024Z,100459.41
2022-08-25T18:31:48.638Z,100455.91
2022-08-25T18:34:18.936Z,100450.78
2022-08-25T18:39:39.493Z,100449.16
2022-08-25T18:42:09.473Z,100453.28
2022-08-25T18:44:38.976Z,100439.50
2022-08-25T18:47:14.546Z,100455.94
2022-08-25T18:49:50.437Z,100408.81
2022-08-25T18:52:29.689Z,100443.34
2022-08-25T18:55:00.134Z,100450.78
2022-08-25T18:57:47.064Z,100440.06
2022-08-25T19:00:18.414Z,100435.75
2022-08-25T19:02:47.618Z,100458.66
2022-08-25T19:05:20.203Z,100456.00
2022-08-25T19:07:54.720Z,100451.66
2022-08-25T19:10:24.159Z,100446.91
2022-08-25T19:12:54.486Z,100447.84
2022-08-25T19:15:29.833Z,100450.50
2022-08-25T19:18:09.950Z,100449.97
2022-08-25T19:20:40.615Z,100444.22
2022-08-25T19:23:17.781Z,100441.56
2022-08-25T19:25:47.201Z,100446.75
2022-08-25T19:28:16.764Z,100440.88
2022-08-25T19:30:50.420Z,100438.94
2022-08-25T19:33:42.254Z,100448.31
2022-08-25T19:36:14.690Z,100434.19
2022-08-25T19:38:46.586Z,100452.06
2022-08-25T19:41:21.919Z,100445.84
2022-08-25T19:43:57.696Z,100446.03
2022-08-25T19:46:33.280Z,100448.59
2022-08-25T19:49:08.329Z,100413.31
2022-08-25T19:51:39.879Z,100441.16
2022-08-25T19:54:14.241Z,100443.19
2022-08-25T19:59:20.463Z,100440.78
2022-08-25T20:01:52.263Z,100432.25
2022-08-25T20:04:26.637Z,100444.44
2022-08-25T20:06:56.197Z,100426.97
2022-08-25T20:09:39.031Z,100432.78
2022-08-25T20:15:10.166Z,100413.63
2022-08-25T20:17:41.467Z,100423.22
2022-08-25T20:23:26.414Z,100426.63
2022-08-25T20:25:57.361Z,100437.78
2022-08-25T20:28:26.676Z,100433.59
2022-08-25T20:30:57.491Z,100436.66
2022-08-25T20:33:26.649Z,100428.31
2022-08-25T20:35:55.985Z,100436.28
2022-08-25T20:38:26.692Z,100427.75
2022-08-25T20:40:56.152Z,100432.16
2022-08-25T20:43:29.154Z,100431.31
2022-08-25T20:46:02.855Z,100434.91
2022-08-25T20:48:33.857Z,100438.38
2022-08-25T20:51:06.985Z,100408.09
2022-08-25T20:53:38.775Z,100438.28
2022-08-25T20:56:10.122Z,100438.91
2022-08-25T20:58:42.301Z,100414.00
2022-08-25T21:01:17.497Z,100434.34
2022-08-25T21:03:52.421Z,100437.81
2022-08-25T21:06:21.534Z,100431.00
2022-08-25T21:08:51.077Z,100422.09
2022-08-25T21:11:21.796Z,100435.28
2022-08-25T21:13:52.939Z,100433.75
2022-08-25T21:16:23.513Z,100443.75
2022-08-25T21:18:52.923Z,100446.63
2022-08-25T21:21:22.075Z,100447.94
2022-08-25T21:23:56.327Z,100449.88
2022-08-25T21:26:33.442Z,100453.53
2022-08-25T21:29:07.589Z,100452.75
2022-08-25T21:31:38.148Z,100436.84
2022-08-25T21:34:08.681Z,100453.53
2022-08-25T21:36:37.868Z,100443.91
2022-08-25T21:41:49.203Z,100436.19
2022-08-25T21:44:20.826Z,100443.88
2022-08-25T21:46:53.688Z,100441.47
2022-08-25T21:49:25.136Z,100452.56
2022-08-25T21:52:04.406Z,100443.22
2022-08-25T21:54:34.384Z,100454.41
2022-08-25T21:57:06.327Z,100437.19
2022-08-25T21:59:43.700Z,100449.38
2022-08-25T22:02:17.148Z,100450.22
2022-08-25T22:04:56.266Z,100452.16
2022-08-25T22:07:26.382Z,100446.16
2022-08-25T22:09:55.495Z,100455.72
2022-08-25T22:12:24.926Z,100450.66
2022-08-25T22:14:56.152Z,100445.47
2022-08-25T22:17:30.503Z,100445.06
2022-08-25T22:20:00.360Z,100432.97
2022-08-25T22:22:29.640Z,100443.63
2022-08-25T22:24:58.818Z,100437.69
2022-08-25T22:27:28.706Z,100443.25
2022-08-25T22:30:05.818Z,100442.38
2022-08-25T22:32:35.619Z,100438.53
2022-08-25T22:35:04.944Z,100451.63
2022-08-25T22:37:35.056Z,100446.44
2022-08-25T22:40:06.639Z,100446.38
2022-08-25T22:42:35.605Z,100441.53
2022-08-25T22:45:07.461Z,100446.16
2022-08-25T22:47:37.447Z,100446.22
2022-08-25T22:50:07.543Z,100447.34
2022-08-25T22:55:18.393Z,100448.38
2022-08-25T22:57:56.791Z,100440.56
2022-08-25T23:00:28.009Z,100446.81
2022-08-25T23:02:57.245Z,100444.19
2022-08-25T23:05:26.381Z,100443.22
2022-08-25T23:07:57.282Z,100446.06
2022-08-25T23:10:26.984Z,100440.25
2022-08-25T23:13:01.716Z,100436.41
2022-08-25T23:15:32.933Z,100446.19
2022-08-25T23:18:03.381Z,100440.44
2022-08-25T23:20:45.836Z,100434.78
2022-08-25T23:23:15.594Z,100433.94
2022-08-25T23:25:46.211Z,100437.78
2022-08-25T23:28:21.298Z,100437.84
2022-08-25T23:30:59.269Z,100437.94
2022-08-25T23:33:28.896Z,100431.22
2022-08-25T23:36:02.141Z,100436.41
2022-08-25T23:38:31.569Z,100434.03
2022-08-25T23:41:02.064Z,100431.53
2022-08-25T23:43:31.917Z,100428.91
2022-08-25T23:46:03.222Z,100438.78
2022-08-25T23:48:37.986Z,100438.97
2022-08-25T23:51:08.857Z,100438.84
2022-08-25T23:53:38.624Z,100443.50
2022-08-25T23:56:08.032Z,100437.19
2022-08-25T23:58:37.878Z,100446.88
